Terminal Aerodrome Forecast
Issued by NWS Boise, ID

Home | Current Version | Previous Version | Text Only | Print | Product List | Glossary On
Versions: 1 2 3 4 5 6 7 8 9 10 11 12 13 14 15 16 17
000
FTUS45 KBOI 060520
TAFBNO
TAF
KBNO 060520Z 0606/0706 VRB06KT P6SM VCSH OVC040
      TEMPO 0606/0607 5SM -SHSN BKN030
     FM060700 VRB04KT 6SM -SHSN SCT015 OVC025
     FM061700 29007KT P6SM VCSH SCT015 OVC040
     FM062300 30006KT P6SM SCT050 BKN100=

USA.gov is the U.S. government's official web portal to all federal, state and local government web resources and services.